Time;durP1;ratioP1;P1;durP2;ratioP2;P2;SDS_P1;SDS_P2;PMS_P1;PMS_P2;Temp;Humidity;BMP_temperature;BMP_pressure;BME280_temperature;BME280_humidity;BME280_pressure;Samples;Min_cycle;Max_cycle;Signal;HPM_P1;HPM_P2
2023/08/04 00:03:48;;;;;;;1.65;0.95;;;;;;;;;;8234088;28;20042;-69
2023/08/04 00:07:48;;;;;;;0.80;0.80;;;;;;;;;;8237647;28;20053;-70
2023/08/04 00:11:49;;;;;;;1.55;0.75;;;;;;;;;;8236119;28;20014;-70
2023/08/04 00:15:49;;;;;;;0.80;0.80;;;;;;;;;;8236966;28;20585;-70
2023/08/04 00:19:49;;;;;;;1.20;0.90;;;;;;;;;;8235564;28;20030;-70
2023/08/04 00:23:56;;;;;;;0.55;0.55;;;;;;;;;;8240468;28;20658;-70
2023/08/04 00:27:56;;;;;;;1.42;0.77;;;;;;;;;;8244504;28;20157;-70
2023/08/04 00:31:56;;;;;;;2.60;1.00;;;;;;;;;;8243351;28;20034;-70
2023/08/04 00:35:56;;;;;;;1.15;0.90;;;;;;;;;;8243208;28;20045;-70
2023/08/04 00:39:56;;;;;;;0.90;0.90;;;;;;;;;;8242602;28;20114;-70
2023/08/04 00:43:56;;;;;;;2.10;0.80;;;;;;;;;;8243507;28;20145;-70
2023/08/04 00:47:57;;;;;;;1.23;0.80;;;;;;;;;;8240921;28;20026;-70
2023/08/04 00:51:58;;;;;;;0.95;0.85;;;;;;;;;;8242795;28;20038;-70
2023/08/04 00:55:58;;;;;;;1.95;0.80;;;;;;;;;;8244850;28;20041;-70
2023/08/04 00:59:58;;;;;;;2.42;0.70;;;;;;;;;;8241531;28;20037;-70
2023/08/04 01:03:58;;;;;;;1.55;0.80;;;;;;;;;;8242087;28;20129;-70
2023/08/04 01:08:19;;;;;;;2.47;0.90;;;;;;;;;;8242488;28;21008;-70
2023/08/04 01:12:46;;;;;;;1.25;0.80;;;;;;;;;;8234206;28;20134;-70
2023/08/04 01:16:46;;;;;;;3.03;0.77;;;;;;;;;;8211363;28;20092;-70
2023/08/04 01:20:46;;;;;;;2.60;0.85;;;;;;;;;;8241913;28;20049;-70
2023/08/04 01:24:46;;;;;;;0.95;0.70;;;;;;;;;;8240559;28;20018;-70
2023/08/04 01:28:47;;;;;;;2.17;0.88;;;;;;;;;;8237534;28;20802;-70
2023/08/04 01:32:48;;;;;;;0.60;0.60;;;;;;;;;;8228639;28;20042;-70
2023/08/04 01:36:48;;;;;;;1.42;0.80;;;;;;;;;;8240607;28;20474;-70
2023/08/04 01:40:48;;;;;;;1.58;0.70;;;;;;;;;;8241967;28;20109;-70
2023/08/04 01:44:48;;;;;;;2.47;0.70;;;;;;;;;;8243355;28;20026;-70
2023/08/04 01:48:49;;;;;;;1.75;0.90;;;;;;;;;;8240807;28;20277;-70
2023/08/04 01:52:49;;;;;;;0.95;0.85;;;;;;;;;;8241732;28;20034;-70
2023/08/04 01:56:49;;;;;;;3.05;0.93;;;;;;;;;;8243134;28;20094;-70
2023/08/04 02:00:49;;;;;;;2.38;0.90;;;;;;;;;;8239052;28;20521;-70
2023/08/04 02:04:49;;;;;;;2.13;0.80;;;;;;;;;;8240357;28;20674;-70
2023/08/04 02:08:49;;;;;;;1.88;0.85;;;;;;;;;;8241326;28;20018;-69
2023/08/04 02:12:50;;;;;;;1.23;0.80;;;;;;;;;;8240268;28;20025;-70
2023/08/04 02:16:50;;;;;;;3.50;0.90;;;;;;;;;;8240210;28;20050;-70
2023/08/04 02:20:50;;;;;;;1.33;0.85;;;;;;;;;;8240521;28;20042;-70
2023/08/04 02:24:50;;;;;;;1.38;0.80;;;;;;;;;;8238928;28;20041;-70
2023/08/04 02:28:53;;;;;;;3.65;1.00;;;;;;;;;;8240294;28;20100;-69
2023/08/04 02:32:53;;;;;;;1.02;0.93;;;;;;;;;;8238839;28;20050;-69
2023/08/04 02:36:54;;;;;;;3.30;1.00;;;;;;;;;;8239860;28;20034;-69
2023/08/04 02:40:59;;;;;;;1.35;0.90;;;;;;;;;;8239412;28;20029;-70
2023/08/04 02:44:59;;;;;;;1.00;0.90;;;;;;;;;;8219418;28;20951;-70
2023/08/04 02:49:00;;;;;;;1.43;0.90;;;;;;;;;;8237718;28;20445;-70
2023/08/04 02:53:01;;;;;;;5.03;1.00;;;;;;;;;;8237680;28;20448;-70
2023/08/04 02:57:01;;;;;;;2.03;0.97;;;;;;;;;;8237203;28;20332;-70
2023/08/04 03:01:01;;;;;;;1.42;0.70;;;;;;;;;;8238150;28;20284;-70
2023/08/04 03:05:02;;;;;;;3.05;1.00;;;;;;;;;;8238812;28;20029;-69
2023/08/04 03:09:02;;;;;;;1.83;0.95;;;;;;;;;;8236098;28;20026;-69
2023/08/04 03:13:02;;;;;;;0.97;0.93;;;;;;;;;;8237936;28;20037;-69
2023/08/04 03:17:03;;;;;;;2.20;0.90;;;;;;;;;;8236999;28;20038;-69
2023/08/04 03:21:03;;;;;;;1.67;0.98;;;;;;;;;;8239140;28;20144;-69
2023/08/04 03:25:03;;;;;;;2.15;1.00;;;;;;;;;;8236523;28;20030;-69
2023/08/04 03:29:04;;;;;;;1.65;0.90;;;;;;;;;;8238883;28;20022;-70
2023/08/04 03:33:04;;;;;;;1.95;1.08;;;;;;;;;;8236914;28;20051;-70
2023/08/04 03:37:04;;;;;;;1.90;1.05;;;;;;;;;;8237016;28;20060;-70
2023/08/04 03:41:04;;;;;;;1.10;0.90;;;;;;;;;;8238790;28;20427;-70
2023/08/04 03:45:08;;;;;;;1.50;1.00;;;;;;;;;;8235305;28;20065;-70
2023/08/04 03:49:08;;;;;;;3.03;1.15;;;;;;;;;;8236252;28;20048;-70
2023/08/04 03:53:08;;;;;;;4.70;1.58;;;;;;;;;;8236755;28;20080;-70
2023/08/04 03:57:08;;;;;;;3.97;1.80;;;;;;;;;;8234998;28;20118;-70
2023/08/04 04:01:08;;;;;;;1.95;1.75;;;;;;;;;;8236708;28;20495;-70
2023/08/04 04:05:09;;;;;;;2.17;1.90;;;;;;;;;;8237463;28;20034;-70
2023/08/04 04:09:09;;;;;;;5.97;2.23;;;;;;;;;;8236202;28;20404;-70
2023/08/04 04:13:09;;;;;;;2.03;1.83;;;;;;;;;;8238382;28;20264;-69
2023/08/04 04:17:09;;;;;;;1.98;1.83;;;;;;;;;;8234712;28;20516;-69
2023/08/04 04:21:10;;;;;;;3.30;2.20;;;;;;;;;;8238351;28;20022;-69
2023/08/04 04:25:10;;;;;;;4.38;2.30;;;;;;;;;;8236907;28;20022;-69
2023/08/04 04:29:10;;;;;;;6.20;1.98;;;;;;;;;;8234072;28;20044;-69
2023/08/04 04:33:10;;;;;;;4.90;2.15;;;;;;;;;;8238647;28;20108;-69
2023/08/04 04:37:10;;;;;;;1.90;1.80;;;;;;;;;;8236545;28;20040;-69
2023/08/04 04:41:11;;;;;;;4.63;2.03;;;;;;;;;;8237350;28;20283;-69
2023/08/04 04:45:11;;;;;;;2.83;1.90;;;;;;;;;;8236059;28;20030;-69
2023/08/04 04:49:11;;;;;;;2.65;2.28;;;;;;;;;;8236107;28;20457;-69
2023/08/04 04:53:13;;;;;;;5.63;2.50;;;;;;;;;;8235410;28;20101;-69
2023/08/04 04:57:13;;;;;;;2.80;2.50;;;;;;;;;;8235696;28;20041;-69
2023/08/04 05:01:13;;;;;;;4.85;2.63;;;;;;;;;;8233971;28;20038;-69
2023/08/04 05:05:13;;;;;;;3.10;2.65;;;;;;;;;;8237583;28;20123;-69
2023/08/04 05:09:14;;;;;;;5.50;2.70;;;;;;;;;;8236990;28;20018;-69
2023/08/04 05:13:14;;;;;;;3.17;2.67;;;;;;;;;;8242894;28;20030;-70
2023/08/04 05:17:14;;;;;;;3.13;2.28;;;;;;;;;;8241372;28;20145;-70
2023/08/04 05:21:14;;;;;;;3.50;2.53;;;;;;;;;;8243129;28;20072;-70
2023/08/04 05:25:14;;;;;;;3.15;2.30;;;;;;;;;;8241670;28;20651;-70
2023/08/04 05:29:14;;;;;;;2.78;2.42;;;;;;;;;;8241397;28;20057;-70
2023/08/04 05:33:15;;;;;;;2.88;2.42;;;;;;;;;;8241117;28;20050;-70
2023/08/04 05:37:15;;;;;;;2.70;2.20;;;;;;;;;;8240666;28;20067;-70
2023/08/04 05:41:15;;;;;;;2.30;2.10;;;;;;;;;;8243362;28;20037;-70
2023/08/04 05:45:15;;;;;;;1.95;1.85;;;;;;;;;;8241305;28;20187;-69
2023/08/04 05:49:15;;;;;;;3.42;2.03;;;;;;;;;;8241085;28;20018;-69
2023/08/04 05:53:16;;;;;;;2.30;2.13;;;;;;;;;;8240085;28;20038;-69
2023/08/04 05:57:16;;;;;;;3.05;2.38;;;;;;;;;;8240996;28;20042;-69
2023/08/04 06:01:16;;;;;;;2.30;2.10;;;;;;;;;;8239253;28;20057;-70
2023/08/04 06:05:16;;;;;;;3.83;2.38;;;;;;;;;;8240798;28;20492;-69
2023/08/04 06:09:16;;;;;;;3.67;2.50;;;;;;;;;;8239487;28;20026;-69
2023/08/04 06:13:17;;;;;;;3.05;2.60;;;;;;;;;;8239853;28;20029;-69
2023/08/04 06:17:17;;;;;;;3.00;2.50;;;;;;;;;;8237536;28;20038;-69
2023/08/04 06:21:17;;;;;;;3.78;2.45;;;;;;;;;;8240035;28;20042;-69
2023/08/04 06:25:17;;;;;;;2.38;2.17;;;;;;;;;;8238394;28;20072;-69
2023/08/04 06:29:17;;;;;;;3.28;2.20;;;;;;;;;;8239753;28;20049;-69
2023/08/04 06:33:18;;;;;;;5.07;2.13;;;;;;;;;;8240133;28;20052;-69
2023/08/04 06:37:18;;;;;;;4.88;2.17;;;;;;;;;;8239425;28;20198;-69
2023/08/04 06:41:18;;;;;;;4.57;2.22;;;;;;;;;;8240286;28;20422;-69
2023/08/04 06:45:18;;;;;;;5.70;2.65;;;;;;;;;;8239111;28;20509;-69
2023/08/04 06:49:18;;;;;;;6.23;2.70;;;;;;;;;;8238714;28;20035;-69
2023/08/04 06:53:19;;;;;;;4.22;2.60;;;;;;;;;;8239814;28;21175;-69
2023/08/04 06:57:19;;;;;;;2.80;2.55;;;;;;;;;;8239436;28;20472;-69
2023/08/04 07:01:19;;;;;;;4.55;3.20;;;;;;;;;;8238278;28;20034;-69
2023/08/04 07:05:19;;;;;;;4.22;3.05;;;;;;;;;;8221108;28;20049;-70
2023/08/04 07:09:19;;;;;;;3.30;2.83;;;;;;;;;;8237702;28;20113;-69
2023/08/04 07:13:20;;;;;;;2.95;2.60;;;;;;;;;;8240047;28;20710;-69
2023/08/04 07:17:20;;;;;;;3.30;2.75;;;;;;;;;;8238766;28;20037;-69
2023/08/04 07:21:20;;;;;;;4.38;3.42;;;;;;;;;;8239117;28;20148;-70
2023/08/04 07:25:20;;;;;;;5.35;3.28;;;;;;;;;;8237997;28;20060;-70
2023/08/04 07:29:20;;;;;;;4.97;3.75;;;;;;;;;;8236312;28;20034;-70
2023/08/04 07:33:21;;;;;;;5.53;3.80;;;;;;;;;;8238468;28;20042;-70
2023/08/04 07:37:21;;;;;;;4.90;3.90;;;;;;;;;;8236338;28;20033;-70
2023/08/04 07:41:24;;;;;;;4.95;4.13;;;;;;;;;;8238640;28;20060;-70
2023/08/04 07:45:24;;;;;;;6.78;4.55;;;;;;;;;;8220857;28;20080;-69
2023/08/04 07:49:24;;;;;;;6.63;4.70;;;;;;;;;;8238761;28;20026;-70
2023/08/04 07:53:24;;;;;;;6.40;4.53;;;;;;;;;;8237497;28;20021;-70
2023/08/04 07:57:25;;;;;;;4.85;4.35;;;;;;;;;;8236806;28;20018;-70
2023/08/04 08:01:25;;;;;;;6.03;4.85;;;;;;;;;;8235945;28;20034;-70
2023/08/04 08:05:25;;;;;;;10.60;5.15;;;;;;;;;;8227334;28;22720;-70
2023/08/04 08:09:26;;;;;;;7.20;4.90;;;;;;;;;;8235870;28;20037;-70
2023/08/04 08:13:28;;;;;;;6.50;5.30;;;;;;;;;;8235514;28;20050;-70
2023/08/04 08:17:29;;;;;;;5.40;4.90;;;;;;;;;;8236304;28;20034;-70
2023/08/04 08:21:30;;;;;;;7.27;5.00;;;;;;;;;;8236104;28;20105;-70
2023/08/04 08:25:31;;;;;;;6.63;5.93;;;;;;;;;;8233100;28;20292;-70
2023/08/04 08:29:31;;;;;;;6.10;5.50;;;;;;;;;;8236417;28;20556;-70
2023/08/04 08:33:31;;;;;;;5.90;4.85;;;;;;;;;;8236675;28;20127;-70
2023/08/04 08:37:31;;;;;;;9.68;5.45;;;;;;;;;;8236701;28;20033;-69
2023/08/04 08:41:32;;;;;;;6.38;5.65;;;;;;;;;;8238170;28;20475;-70
2023/08/04 08:45:33;;;;;;;8.98;6.30;;;;;;;;;;8242129;28;20881;-70
2023/08/04 08:49:38;;;;;;;9.07;6.55;;;;;;;;;;8242183;28;20026;-70
2023/08/04 08:53:38;;;;;;;7.28;6.53;;;;;;;;;;8242104;28;20026;-70
2023/08/04 08:57:39;;;;;;;8.15;6.93;;;;;;;;;;8241459;28;20121;-69
2023/08/04 09:01:40;;;;;;;10.20;6.72;;;;;;;;;;8242520;28;20710;-70
2023/08/04 09:05:40;;;;;;;12.67;6.23;;;;;;;;;;8241367;28;20026;-69
2023/08/04 09:09:40;;;;;;;7.93;5.77;;;;;;;;;;8242552;28;20273;-69
2023/08/04 09:13:45;;;;;;;8.37;6.03;;;;;;;;;;8242309;28;20580;-70
2023/08/04 09:17:45;;;;;;;8.50;6.03;;;;;;;;;;8241415;28;20038;-69
2023/08/04 09:21:56;;;;;;;6.68;5.63;;;;;;;;;;8243504;28;20528;-69
2023/08/04 09:25:56;;;;;;;7.78;5.38;;;;;;;;;;8241986;28;20049;-69
2023/08/04 09:29:58;;;;;;;11.27;6.13;;;;;;;;;;8243155;28;20018;-69
2023/08/04 09:33:58;;;;;;;10.18;5.68;;;;;;;;;;8241584;28;20136;-69
2023/08/04 09:37:58;;;;;;;9.48;5.30;;;;;;;;;;8239350;28;20026;-69
2023/08/04 09:41:59;;;;;;;6.25;5.50;;;;;;;;;;8242665;28;20033;-70
2023/08/04 09:46:03;;;;;;;9.95;5.40;;;;;;;;;;8243263;28;20045;-69
2023/08/04 09:50:08;;;;;;;7.70;4.95;;;;;;;;;;8239172;28;20092;-70
2023/08/04 09:54:09;;;;;;;6.80;4.88;;;;;;;;;;8222743;28;20022;-70
2023/08/04 09:58:10;;;;;;;7.47;4.80;;;;;;;;;;8240669;28;20046;-70
2023/08/04 10:02:10;;;;;;;6.03;4.88;;;;;;;;;;8238519;28;20042;-69
2023/08/04 10:06:10;;;;;;;8.03;5.07;;;;;;;;;;8244264;28;20108;-69
2023/08/04 10:10:10;;;;;;;9.85;5.13;;;;;;;;;;8240551;28;20274;-69
2023/08/04 10:14:11;;;;;;;6.72;4.97;;;;;;;;;;8242452;28;20038;-69
2023/08/04 10:18:11;;;;;;;8.05;4.60;;;;;;;;;;8240034;28;20133;-69
2023/08/04 10:22:12;;;;;;;6.50;4.50;;;;;;;;;;8240412;28;20478;-69
2023/08/04 10:26:13;;;;;;;7.68;4.28;;;;;;;;;;8242405;28;20061;-69
2023/08/04 10:30:13;;;;;;;7.72;4.28;;;;;;;;;;8240024;28;20064;-69
2023/08/04 10:34:24;;;;;;;7.30;4.30;;;;;;;;;;8242832;28;20763;-69
2023/08/04 10:38:24;;;;;;;6.22;4.47;;;;;;;;;;8241896;28;20483;-69
2023/08/04 10:42:28;;;;;;;7.38;4.85;;;;;;;;;;8222006;28;20459;-69
2023/08/04 10:46:31;;;;;;;9.82;5.20;;;;;;;;;;8241575;28;20038;-69
2023/08/04 10:50:31;;;;;;;5.22;4.38;;;;;;;;;;8241000;28;20026;-69
2023/08/04 10:54:32;;;;;;;8.10;4.50;;;;;;;;;;8222538;28;20038;-69
2023/08/04 10:58:32;;;;;;;6.88;4.60;;;;;;;;;;8238012;28;20037;-69
2023/08/04 11:02:32;;;;;;;7.65;5.10;;;;;;;;;;8239808;28;20041;-69
2023/08/04 11:06:33;;;;;;;9.98;4.22;;;;;;;;;;8220403;28;20032;-69
2023/08/04 11:10:34;;;;;;;4.43;4.00;;;;;;;;;;8239070;28;20067;-69
2023/08/04 11:14:35;;;;;;;6.95;4.18;;;;;;;;;;8240053;28;20060;-69
2023/08/04 11:18:35;;;;;;;5.63;4.07;;;;;;;;;;8239410;28;20042;-69
2023/08/04 11:22:37;;;;;;;7.00;4.30;;;;;;;;;;8239631;28;20025;-69
2023/08/04 11:26:37;;;;;;;7.13;3.97;;;;;;;;;;8239625;28;20446;-69
2023/08/04 11:30:38;;;;;;;5.10;3.72;;;;;;;;;;8240278;28;20038;-69
2023/08/04 11:34:38;;;;;;;5.97;3.90;;;;;;;;;;8239579;28;20088;-69
2023/08/04 11:38:38;;;;;;;5.20;4.22;;;;;;;;;;8238291;28;20429;-69
2023/08/04 11:42:39;;;;;;;4.65;3.78;;;;;;;;;;8241182;28;20528;-69
2023/08/04 11:46:39;;;;;;;7.10;4.15;;;;;;;;;;8238554;28;20403;-70
2023/08/04 11:50:39;;;;;;;5.67;4.27;;;;;;;;;;8239968;28;20033;-70
2023/08/04 11:54:53;;;;;;;4.80;3.87;;;;;;;;;;8237600;28;20825;-69
2023/08/04 11:58:55;;;;;;;4.93;3.70;;;;;;;;;;8240452;28;20027;-70
2023/08/04 12:02:56;;;;;;;5.17;3.70;;;;;;;;;;8239046;28;20514;-69
2023/08/04 12:07:03;;;;;;;4.80;3.67;;;;;;;;;;8238115;28;20038;-69
2023/08/04 12:11:04;;;;;;;4.32;3.75;;;;;;;;;;8239370;28;20508;-70
2023/08/04 12:15:04;;;;;;;5.22;3.40;;;;;;;;;;8239311;28;20061;-69
2023/08/04 12:19:05;;;;;;;5.43;3.80;;;;;;;;;;8237019;28;20026;-69
2023/08/04 12:23:12;;;;;;;5.40;3.78;;;;;;;;;;8236800;28;20093;-70
2023/08/04 12:27:12;;;;;;;5.95;3.50;;;;;;;;;;8237208;28;20959;-69
2023/08/04 12:31:12;;;;;;;4.57;3.67;;;;;;;;;;8236748;28;20058;-69
2023/08/04 12:35:13;;;;;;;5.80;3.58;;;;;;;;;;8236746;28;20041;-70
2023/08/04 12:39:13;;;;;;;4.78;3.80;;;;;;;;;;8235377;28;20718;-70
2023/08/04 12:43:14;;;;;;;5.43;3.92;;;;;;;;;;8236539;28;20025;-70
2023/08/04 12:47:14;;;;;;;4.63;3.50;;;;;;;;;;8238145;28;20111;-70
2023/08/04 12:51:14;;;;;;;6.22;3.35;;;;;;;;;;8237984;28;20565;-70
2023/08/04 12:55:14;;;;;;;3.92;3.17;;;;;;;;;;8237798;28;20036;-70
2023/08/04 12:59:15;;;;;;;5.82;3.30;;;;;;;;;;8234633;28;20030;-70
2023/08/04 13:03:15;;;;;;;3.17;2.70;;;;;;;;;;8236157;28;20752;-70
2023/08/04 13:07:15;;;;;;;4.30;2.78;;;;;;;;;;8237639;28;20099;-70
2023/08/04 13:11:15;;;;;;;2.90;2.60;;;;;;;;;;8239477;28;20021;-70
2023/08/04 13:15:15;;;;;;;3.70;2.33;;;;;;;;;;8236631;28;21105;-70
2023/08/04 13:19:15;;;;;;;2.90;1.98;;;;;;;;;;8235450;28;20023;-70
2023/08/04 13:23:16;;;;;;;2.85;2.20;;;;;;;;;;8237777;28;20444;-70
2023/08/04 13:27:16;;;;;;;3.65;2.17;;;;;;;;;;8236822;28;20026;-70
2023/08/04 13:31:16;;;;;;;2.45;1.95;;;;;;;;;;8241478;28;20046;-70
2023/08/04 13:35:16;;;;;;;5.53;2.10;;;;;;;;;;8244241;28;20104;-70
2023/08/04 13:39:16;;;;;;;2.33;2.13;;;;;;;;;;8243311;28;20108;-70
2023/08/04 13:43:17;;;;;;;5.65;2.33;;;;;;;;;;8244339;28;20034;-69
2023/08/04 13:47:17;;;;;;;2.38;2.08;;;;;;;;;;8242616;28;20437;-70
2023/08/04 13:51:17;;;;;;;3.10;2.20;;;;;;;;;;8242659;28;20773;-70
2023/08/04 13:55:17;;;;;;;5.13;2.50;;;;;;;;;;8244931;28;20077;-70
2023/08/04 13:59:17;;;;;;;2.53;2.15;;;;;;;;;;8240062;28;20026;-70
2023/08/04 14:03:17;;;;;;;3.70;2.40;;;;;;;;;;8241564;28;20038;-70
2023/08/04 14:07:18;;;;;;;2.10;1.80;;;;;;;;;;8243860;28;20061;-70
2023/08/04 14:11:18;;;;;;;6.10;2.03;;;;;;;;;;8243399;28;20030;-70
2023/08/04 14:15:18;;;;;;;3.25;1.85;;;;;;;;;;8239747;28;20025;-70
2023/08/04 14:19:18;;;;;;;2.05;1.63;;;;;;;;;;8242152;28;20034;-70
2023/08/04 14:23:18;;;;;;;3.95;1.80;;;;;;;;;;8240501;28;20083;-70
2023/08/04 14:27:19;;;;;;;3.10;1.83;;;;;;;;;;8239970;28;20030;-70
2023/08/04 14:31:19;;;;;;;4.35;1.90;;;;;;;;;;8242108;28;20038;-70
2023/08/04 14:35:19;;;;;;;2.28;1.90;;;;;;;;;;8240939;28;20036;-70
2023/08/04 14:39:19;;;;;;;2.65;1.80;;;;;;;;;;8239877;28;20025;-70
2023/08/04 14:43:19;;;;;;;4.20;2.15;;;;;;;;;;8239348;28;20025;-70
2023/08/04 14:47:20;;;;;;;3.22;2.05;;;;;;;;;;8240991;28;20566;-70
2023/08/04 14:51:20;;;;;;;3.10;2.00;;;;;;;;;;8240906;28;20027;-70
2023/08/04 14:55:20;;;;;;;3.97;2.05;;;;;;;;;;8239709;28;20123;-70
2023/08/04 14:59:20;;;;;;;3.83;1.88;;;;;;;;;;8240983;28;20034;-70
2023/08/04 15:03:20;;;;;;;3.13;1.90;;;;;;;;;;8238327;28;20097;-70
2023/08/04 15:07:21;;;;;;;3.47;2.28;;;;;;;;;;8239742;28;20022;-70
2023/08/04 15:11:21;;;;;;;2.97;1.90;;;;;;;;;;8241833;28;20072;-70
2023/08/04 15:15:22;;;;;;;3.72;2.00;;;;;;;;;;8239849;28;20507;-70
2023/08/04 15:19:22;;;;;;;3.47;2.10;;;;;;;;;;8227843;28;20033;-69
2023/08/04 15:23:22;;;;;;;3.33;1.98;;;;;;;;;;8241053;28;20034;-69
2023/08/04 15:27:22;;;;;;;3.17;2.08;;;;;;;;;;8239239;28;20546;-69
2023/08/04 15:31:22;;;;;;;2.40;2.13;;;;;;;;;;8237136;28;20668;-69
2023/08/04 15:35:23;;;;;;;3.20;2.28;;;;;;;;;;8237870;28;20057;-69
2023/08/04 15:39:23;;;;;;;3.23;2.10;;;;;;;;;;8238520;28;20041;-69
2023/08/04 15:43:23;;;;;;;3.10;2.42;;;;;;;;;;8240758;28;20025;-69
2023/08/04 15:47:23;;;;;;;4.78;2.35;;;;;;;;;;8236845;28;20034;-69
2023/08/04 15:51:23;;;;;;;3.45;2.40;;;;;;;;;;8237896;28;20057;-69
2023/08/04 15:55:24;;;;;;;4.60;2.40;;;;;;;;;;8236789;28;20053;-69
2023/08/04 15:59:24;;;;;;;3.63;2.20;;;;;;;;;;8239295;28;20058;-69
2023/08/04 16:03:24;;;;;;;6.72;2.40;;;;;;;;;;8237846;28;20525;-69
2023/08/04 16:07:25;;;;;;;2.65;2.10;;;;;;;;;;8238224;28;20092;-69
2023/08/04 16:11:27;;;;;;;3.13;2.20;;;;;;;;;;8237999;28;20022;-69
2023/08/04 16:15:27;;;;;;;3.47;2.10;;;;;;;;;;8238754;28;20374;-69
2023/08/04 16:19:27;;;;;;;4.40;2.20;;;;;;;;;;8237140;28;20026;-69
2023/08/04 16:23:28;;;;;;;3.25;2.00;;;;;;;;;;8235900;28;20030;-69
2023/08/04 16:27:28;;;;;;;6.25;2.00;;;;;;;;;;8237765;28;20041;-69
2023/08/04 16:31:29;;;;;;;3.10;1.92;;;;;;;;;;8237662;28;20112;-69
2023/08/04 16:35:29;;;;;;;2.20;2.00;;;;;;;;;;8219854;28;20038;-69
2023/08/04 16:39:29;;;;;;;1.80;1.70;;;;;;;;;;8238560;28;20038;-69
2023/08/04 16:43:30;;;;;;;3.65;2.00;;;;;;;;;;8238459;28;20855;-69
2023/08/04 16:47:30;;;;;;;3.33;2.05;;;;;;;;;;8236618;28;20023;-69
2023/08/04 16:51:30;;;;;;;2.10;1.85;;;;;;;;;;8236799;28;20026;-69
2023/08/04 16:55:31;;;;;;;3.63;2.28;;;;;;;;;;8236657;28;20179;-69
2023/08/04 16:59:31;;;;;;;2.97;1.90;;;;;;;;;;8236188;28;20025;-69
2023/08/04 17:03:32;;;;;;;3.15;2.10;;;;;;;;;;8236182;28;20034;-69
2023/08/04 17:07:32;;;;;;;2.85;1.98;;;;;;;;;;8241776;28;20360;-69
2023/08/04 17:11:32;;;;;;;3.45;2.15;;;;;;;;;;8243162;28;20076;-69
2023/08/04 17:15:33;;;;;;;2.05;1.77;;;;;;;;;;8241608;28;20033;-70
2023/08/04 17:19:33;;;;;;;2.28;2.08;;;;;;;;;;8241519;28;20511;-70
2023/08/04 17:23:34;;;;;;;5.60;2.03;;;;;;;;;;8242333;28;20037;-69
2023/08/04 17:27:34;;;;;;;2.40;1.88;;;;;;;;;;8241142;28;20920;-70
2023/08/04 17:31:34;;;;;;;2.00;1.80;;;;;;;;;;8239035;28;20624;-70
2023/08/04 17:35:37;;;;;;;2.95;2.00;;;;;;;;;;8241098;28;20036;-70
2023/08/04 17:39:37;;;;;;;;;;;;;;;;;;8240574;28;20037;-70
2023/08/04 17:43:37;;;;;;;1.92;1.80;;;;;;;;;;8241559;28;20500;-70
2023/08/04 17:47:38;;;;;;;3.65;2.00;;;;;;;;;;8241627;28;20050;-70
2023/08/04 17:51:38;;;;;;;2.55;2.00;;;;;;;;;;8241512;28;20040;-70
2023/08/04 17:55:38;;;;;;;2.70;1.90;;;;;;;;;;8239839;28;20130;-69
2023/08/04 17:59:39;;;;;;;2.67;2.00;;;;;;;;;;8240433;28;20038;-70
2023/08/04 18:03:39;;;;;;;2.17;1.98;;;;;;;;;;8241012;28;20048;-69
2023/08/04 18:07:39;;;;;;;4.05;2.20;;;;;;;;;;8244375;28;20022;-69
2023/08/04 18:11:39;;;;;;;2.53;2.03;;;;;;;;;;8243937;28;20100;-70
2023/08/04 18:15:39;;;;;;;2.78;2.10;;;;;;;;;;8240015;28;20061;-69
2023/08/04 18:19:39;;;;;;;2.97;2.20;;;;;;;;;;8225284;28;20022;-69
2023/08/04 18:23:40;;;;;;;2.63;1.98;;;;;;;;;;8240808;28;20029;-69
2023/08/04 18:27:40;;;;;;;3.40;2.30;;;;;;;;;;8242389;28;20030;-69
2023/08/04 18:31:40;;;;;;;4.05;2.38;;;;;;;;;;8243769;28;20057;-69
2023/08/04 18:35:41;;;;;;;2.97;2.30;;;;;;;;;;8241700;28;20034;-69
2023/08/04 18:39:41;;;;;;;2.95;2.42;;;;;;;;;;8241586;28;20047;-69
2023/08/04 18:43:41;;;;;;;3.40;2.20;;;;;;;;;;8243720;28;20038;-69
2023/08/04 18:47:42;;;;;;;3.30;1.88;;;;;;;;;;8240716;28;20033;-69
2023/08/04 18:51:42;;;;;;;6.00;1.85;;;;;;;;;;8242139;28;20037;-69
2023/08/04 18:55:42;;;;;;;2.57;2.27;;;;;;;;;;8240426;28;20104;-69
2023/08/04 18:59:42;;;;;;;3.13;2.00;;;;;;;;;;8242015;28;21292;-69
2023/08/04 19:03:42;;;;;;;3.72;2.22;;;;;;;;;;8241041;28;20045;-69
2023/08/04 19:07:43;;;;;;;3.08;1.95;;;;;;;;;;8240491;28;20030;-69
2023/08/04 19:11:43;;;;;;;3.67;2.08;;;;;;;;;;8241647;28;20554;-69
2023/08/04 19:15:43;;;;;;;2.65;1.90;;;;;;;;;;8221631;28;20390;-68
2023/08/04 19:19:43;;;;;;;2.30;2.10;;;;;;;;;;8238760;28;20026;-69
2023/08/04 19:23:44;;;;;;;4.28;1.95;;;;;;;;;;8241233;28;20069;-69
2023/08/04 19:27:44;;;;;;;2.42;1.95;;;;;;;;;;8239848;28;20057;-69
2023/08/04 19:31:45;;;;;;;3.38;1.98;;;;;;;;;;8239094;28;20042;-69
2023/08/04 19:35:45;;;;;;;3.17;1.90;;;;;;;;;;8237769;28;20026;-69
2023/08/04 19:39:45;;;;;;;3.55;2.00;;;;;;;;;;8234736;28;20041;-69
2023/08/04 19:43:45;;;;;;;5.65;2.15;;;;;;;;;;8239788;28;20041;-69
2023/08/04 19:47:45;;;;;;;3.40;2.00;;;;;;;;;;8238670;28;20031;-69
2023/08/04 19:51:46;;;;;;;4.60;1.90;;;;;;;;;;8239065;28;20077;-69
2023/08/04 19:55:46;;;;;;;3.35;2.20;;;;;;;;;;8239686;28;20026;-69
2023/08/04 19:59:46;;;;;;;4.03;2.43;;;;;;;;;;8239573;28;20048;-69
2023/08/04 20:03:46;;;;;;;3.38;1.83;;;;;;;;;;8237472;28;20085;-69
2023/08/04 20:07:46;;;;;;;4.63;2.55;;;;;;;;;;8238409;28;20026;-69
2023/08/04 20:11:46;;;;;;;4.57;2.47;;;;;;;;;;8240070;28;20064;-69
2023/08/04 20:15:47;;;;;;;2.90;2.00;;;;;;;;;;8239635;28;20093;-69
2023/08/04 20:19:47;;;;;;;3.55;2.10;;;;;;;;;;8238044;28;20175;-69
2023/08/04 20:23:47;;;;;;;4.45;2.13;;;;;;;;;;8236478;28;20034;-69
2023/08/04 20:27:47;;;;;;;2.33;1.80;;;;;;;;;;8237546;28;20034;-69
2023/08/04 20:31:47;;;;;;;3.25;1.85;;;;;;;;;;8239808;28;20336;-69
2023/08/04 20:36:04;;;;;;;3.25;2.00;;;;;;;;;;8239901;28;20026;-69
2023/08/04 20:40:04;;;;;;;4.63;2.10;;;;;;;;;;8240221;28;20029;-69
2023/08/04 20:44:04;;;;;;;2.95;1.90;;;;;;;;;;8245185;28;20040;-69
2023/08/04 20:48:06;;;;;;;4.68;2.00;;;;;;;;;;8240788;28;20688;-69
2023/08/04 20:52:07;;;;;;;3.13;2.00;;;;;;;;;;8243090;28;20113;-69
2023/08/04 20:56:07;;;;;;;4.93;2.35;;;;;;;;;;8244843;28;20053;-69
2023/08/04 21:00:08;;;;;;;3.75;1.90;;;;;;;;;;8243799;28;20030;-69
2023/08/04 21:04:08;;;;;;;3.90;1.88;;;;;;;;;;8244652;28;20037;-69
2023/08/04 21:08:08;;;;;;;2.05;1.85;;;;;;;;;;8242140;28;20022;-69
2023/08/04 21:12:08;;;;;;;5.28;2.10;;;;;;;;;;8245217;28;20264;-69
2023/08/04 21:16:08;;;;;;;3.08;2.03;;;;;;;;;;8243859;28;20161;-69
2023/08/04 21:20:09;;;;;;;4.53;2.40;;;;;;;;;;8242540;28;20050;-69
2023/08/04 21:24:09;;;;;;;5.13;2.38;;;;;;;;;;8244406;28;20220;-69
2023/08/04 21:28:09;;;;;;;4.97;2.30;;;;;;;;;;8226931;28;20073;-69
2023/08/04 21:32:09;;;;;;;6.10;2.30;;;;;;;;;;8241063;28;20038;-69
2023/08/04 21:36:09;;;;;;;3.47;2.13;;;;;;;;;;8242669;28;20038;-69
2023/08/04 21:40:10;;;;;;;7.15;2.40;;;;;;;;;;8241102;28;20018;-69
2023/08/04 21:44:10;;;;;;;2.67;2.00;;;;;;;;;;8241805;28;20054;-69
2023/08/04 21:48:10;;;;;;;5.20;2.90;;;;;;;;;;8240905;28;20049;-69
2023/08/04 21:52:10;;;;;;;4.35;2.08;;;;;;;;;;8223376;28;20034;-68
2023/08/04 21:56:10;;;;;;;4.82;2.10;;;;;;;;;;8241363;28;20530;-68
2023/08/04 22:00:12;;;;;;;4.53;2.05;;;;;;;;;;8239524;28;20049;-68
2023/08/04 22:04:12;;;;;;;3.95;2.08;;;;;;;;;;8242295;28;20034;-68
2023/08/04 22:08:12;;;;;;;3.00;2.00;;;;;;;;;;8241517;28;20033;-68
2023/08/04 22:12:12;;;;;;;3.83;2.10;;;;;;;;;;8241185;28;20153;-68
2023/08/04 22:16:13;;;;;;;1.98;1.75;;;;;;;;;;8240984;28;20041;-68
2023/08/04 22:20:13;;;;;;;3.63;1.73;;;;;;;;;;8241154;28;20125;-69
2023/08/04 22:24:15;;;;;;;4.32;1.90;;;;;;;;;;8239662;28;20042;-69
2023/08/04 22:28:15;;;;;;;4.30;1.90;;;;;;;;;;8240485;28;20022;-69
2023/08/04 22:32:15;;;;;;;4.45;2.17;;;;;;;;;;8240555;28;20130;-69
2023/08/04 22:36:16;;;;;;;3.28;1.83;;;;;;;;;;8240939;28;20584;-69
2023/08/04 22:40:16;;;;;;;4.90;2.00;;;;;;;;;;8238454;28;20141;-69
2023/08/04 22:44:16;;;;;;;4.82;1.88;;;;;;;;;;8243531;28;20021;-69
2023/08/04 22:48:16;;;;;;;4.13;1.83;;;;;;;;;;8239460;28;20739;-69
2023/08/04 22:52:16;;;;;;;3.42;1.90;;;;;;;;;;8240292;28;20130;-69
2023/08/04 22:56:16;;;;;;;3.17;1.77;;;;;;;;;;8241529;28;20030;-69
2023/08/04 23:00:17;;;;;;;2.00;1.77;;;;;;;;;;8240074;28;20037;-69
2023/08/04 23:04:17;;;;;;;2.03;1.80;;;;;;;;;;8237226;28;20030;-69
2023/08/04 23:08:17;;;;;;;2.88;2.00;;;;;;;;;;8236930;28;20029;-69
2023/08/04 23:12:18;;;;;;;2.92;1.92;;;;;;;;;;8239320;28;20068;-69
2023/08/04 23:16:18;;;;;;;6.50;1.80;;;;;;;;;;8238592;28;20026;-69
2023/08/04 23:20:18;;;;;;;5.55;2.03;;;;;;;;;;8239198;28;20027;-69
2023/08/04 23:24:18;;;;;;;3.05;2.13;;;;;;;;;;8240064;28;20050;-69
2023/08/04 23:28:18;;;;;;;3.00;1.80;;;;;;;;;;8241142;28;20034;-69
2023/08/04 23:32:18;;;;;;;3.20;2.00;;;;;;;;;;8240110;28;20039;-69
2023/08/04 23:36:19;;;;;;;3.97;1.95;;;;;;;;;;8239626;28;20093;-69
2023/08/04 23:40:19;;;;;;;2.90;2.00;;;;;;;;;;8221936;28;20057;-69
2023/08/04 23:44:19;;;;;;;4.43;2.20;;;;;;;;;;8239951;28;20281;-68
2023/08/04 23:48:19;;;;;;;4.60;1.80;;;;;;;;;;8238436;28;20418;-69
2023/08/04 23:52:19;;;;;;;4.00;1.70;;;;;;;;;;8219778;28;20026;-69
2023/08/04 23:56:20;;;;;;;3.97;2.13;;;;;;;;;;8240650;28;20866;-69
